Map

Track Data

SID SEASON NUMBER BASIN SUBBASIN NAME ISO_TIME NATURE LAT LON WMO_WIND WMO_PRES WMO_AGENCY TRACK_TYPE DIST2LAND LANDFALL IFLAG USA_AGENCY USA_ATCF_ID USA_LAT USA_LON USA_RECORD USA_STATUS USA_WIND USA_PRES USA_SSHS USA_R34_NE USA_R34_SE USA_R34_SW USA_R34_NW USA_R50_NE USA_R50_SE USA_R50_SW USA_R50_NW USA_R64_NE USA_R64_SE USA_R64_SW USA_R64_NW USA_POCI USA_ROCI USA_RMW USA_EYE TOKYO_LAT TOKYO_LON TOKYO_GRADE TOKYO_WIND TOKYO_PRES TOKYO_R50_DIR TOKYO_R50_LONG TOKYO_R50_SHORT TOKYO_R30_DIR TOKYO_R30_LONG TOKYO_R30_SHORT TOKYO_LAND CMA_LAT CMA_LON CMA_CAT CMA_WIND CMA_PRES HKO_LAT HKO_LON HKO_CAT HKO_WIND HKO_PRES NEWDELHI_LAT NEWDELHI_LON NEWDELHI_GRADE NEWDELHI_WIND NEWDELHI_PRES NEWDELHI_CI NEWDELHI_DP NEWDELHI_POCI REUNION_LAT REUNION_LON REUNION_TYPE REUNION_WIND REUNION_PRES REUNION_TNUM REUNION_CI REUNION_RMW REUNION_R34_NE REUNION_R34_SE REUNION_R34_SW REUNION_R34_NW REUNION_R50_NE REUNION_R50_SE REUNION_R50_SW REUNION_R50_NW REUNION_R64_NE REUNION_R64_SE REUNION_R64_SW REUNION_R64_NW BOM_LAT BOM_LON BOM_TYPE BOM_WIND BOM_PRES BOM_TNUM BOM_CI BOM_RMW BOM_R34_NE BOM_R34_SE BOM_R34_SW BOM_R34_NW BOM_R50_NE BOM_R50_SE BOM_R50_SW BOM_R50_NW BOM_R64_NE BOM_R64_SE BOM_R64_SW BOM_R64_NW BOM_ROCI BOM_POCI BOM_EYE BOM_POS_METHOD BOM_PRES_METHOD NADI_LAT NADI_LON NADI_CAT NADI_WIND NADI_PRES WELLINGTON_LAT WELLINGTON_LON WELLINGTON_WIND WELLINGTON_PRES DS824_LAT DS824_LON DS824_STAGE DS824_WIND DS824_PRES TD9636_LAT TD9636_LON TD9636_STAGE TD9636_WIND TD9636_PRES TD9635_LAT TD9635_LON TD9635_WIND TD9635_PRES TD9635_ROCI NEUMANN_LAT NEUMANN_LON NEUMANN_CLASS NEUMANN_WIND NEUMANN_PRES MLC_LAT MLC_LON MLC_CLASS MLC_WIND MLC_PRES USA_GUST BOM_GUST BOM_GUST_PER REUNION_GUST REUNION_GUST_PER USA_SEAHGT USA_SEARAD_NE USA_SEARAD_SE USA_SEARAD_SW USA_SEARAD_NW STORM_SPEED STORM_DIR
1950352S09063 1951 113 SI MM NOT_NAMED 1950-12-18 06:00:00 TS -9.00000 62.9000 main 1362 1345 O________OO___ jtwc_sh SH061951 -9.00000 62.9000 -1 -9.00000 62.9000 TC 25 -9.00000 62.9000 7 9 264
1950352S09063 1951 113 SI MM NOT_NAMED 1950-12-18 09:00:00 TS -9.04810 62.4511 main 1345 1308 P________PP___ SH061951 -9.05007 62.4625 -1 -9.05007 62.4625 TC 25 -9.04417 62.4282 7 8 256
1950352S09063 1951 113 SI MM NOT_NAMED 1950-12-18 12:00:00 TS -9.18713 62.1165 reunion main 1308 1283 O____O___OP___ jtwc_sh SH061951 -9.10000 62.0000 -1 -10.0000 63.3000 99 9.90000 -9.10000 62.0000 TC 25 -9.09043 61.9550 7 8 254
1950352S09063 1951 113 SI MM NOT_NAMED 1950-12-18 15:00:00 TS -9.27585 61.6701 main 1283 1258 P____P___PP___ SH061951 -9.14999 61.5000 -1 -10.0481 62.7324 99 -9.14999 61.5000 TC 30 -9.14148 61.4794 7 9 258
1950352S09063 1951 113 SI MM NOT_NAMED 1950-12-18 18:00:00 TS -9.37913 61.2332 main 1255 1232 O____P___OO___ jtwc_sh SH061951 -9.20000 61.0000 -1 -10.0957 62.1662 99 -9.20000 61.0000 TC 35 -9.20000 61.0000 2 9 257
1950352S09063 1951 113 SI MM NOT_NAMED 1950-12-18 21:00:00 TS -9.47394 60.8050 main 1232 1200 P____P___PP___ SH061951 -9.24239 60.5499 -1 -10.1433 61.6032 99 -9.24239 60.5499 TC 35 -9.26770 60.5169 2 9 260
1950352S09063 1951 113 SI MM NOT_NAMED 1950-12-19 00:00:00 TS -9.53345 60.3201 main 1200 1145 O____P___OP___ jtwc_sh SH061951 -9.30000 60.1000 -1 -10.1914 61.0454 99 -9.30000 60.1000 TC 35 -9.34236 60.0350 2 10 262
1950352S09063 1951 113 SI MM NOT_NAMED 1950-12-19 03:00:00 TS -9.61537 59.8138 main 1145 1089 P____P___PP___ SH061951 -9.39999 59.6000 -1 -10.2406 60.4944 99 -9.39999 59.6000 TC 50 -9.42084 59.5606 2 10 261
1950352S09063 1951 113 SI MM NOT_NAMED 1950-12-19 06:00:00 TS -9.69786 59.3130 main 1089 1044 O____P___OO___ jtwc_sh SH061951 -9.50000 59.1000 -1 -10.2914 59.9520 99 -9.50000 59.1000 TC 65 -9.50000 59.1000 4 10 262
1950352S09063 1951 113 SI MM NOT_NAMED 1950-12-19 09:00:00 TS -9.75476 58.8366 main 1034 993 P____P___PP___ SH061951 -9.54994 58.6349 -1 -10.3444 59.4200 99 -9.54994 58.6349 TC 65 -9.57479 58.6565 4 9 263
1950352S09063 1951 113 SI MM NOT_NAMED 1950-12-19 12:00:00 TS -9.81243 58.3819 reunion main 993 949 O____O___OP___ jtwc_sh SH061951 -9.60000 58.2000 -1 -10.4000 58.9000 99 9.90000 -9.60000 58.2000 TC 65 -9.64973 58.2274 4 9 261
1950352S09063 1951 113 SI MM NOT_NAMED 1950-12-19 15:00:00 TS -9.89583 57.9469 main 938 894 P____P___PP___ SH061951 -9.69993 57.7925 -1 -10.4587 58.3928 99 -9.69993 57.7925 TC 65 -9.72481 57.8096 4 9 259
1950352S09063 1951 113 SI MM NOT_NAMED 1950-12-19 18:00:00 TS -9.97998 57.5239 main 894 853 O____P___OO___ jtwc_sh SH061951 -9.80000 57.4000 -1 -10.5199 57.8955 99 -9.80000 57.4000 TC 65 -9.80000 57.4000 4 8 260
1950352S09063 1951 113 SI MM NOT_NAMED 1950-12-19 21:00:00 TS -10.0404 57.1042 main 853 809 P____P___PP___ SH061951 -9.84995 56.9999 -1 -10.5830 57.4041 99 -9.84995 56.9999 TC 65 -9.87869 57.0131 4 8 262
1950352S09063 1951 113 SI MM NOT_NAMED 1950-12-20 00:00:00 TS -10.1011 56.6861 main 809 764 O____P___OP___ jtwc_sh SH061951 -9.90000 56.6000 -1 -10.6473 56.9147 99 -9.90000 56.6000 TC 65 -9.95696 56.6299 4 8 260
1950352S09063 1951 113 SI MM NOT_NAMED 1950-12-20 03:00:00 TS -10.1859 56.2713 main 764 720 P____P___PP___ SH061951 -9.99989 56.2150 -1 -10.7119 56.4235 99 -9.99989 56.2150 TC 65 -10.0318 56.2318 4 9 259
1950352S09063 1951 113 SI MM NOT_NAMED 1950-12-20 06:00:00 TS -10.2690 55.8316 main 710 671 O____P___OO___ jtwc_sh SH061951 -10.1000 55.8000 -1 -10.7761 55.9266 99 -10.1000 55.8000 TC 65 -10.1000 55.8000 4 9 261
1950352S09063 1951 113 SI MM NOT_NAMED 1950-12-20 09:00:00 TS -10.3257 55.3460 main 661 617 P____P___PP___ SH061951 -10.1575 55.3225 -1 -10.8391 55.4201 99 -10.1575 55.3225 TC 65 -10.1490 55.3188 4 10 264
1950352S09063 1951 113 SI MM NOT_NAMED 1950-12-20 12:00:00 TS -10.3731 54.8255 reunion main 608 560 O____O___OP___ jtwc_sh SH061951 -10.2000 54.8000 -1 -10.9000 54.9000 99 9.90000 -10.2000 54.8000 TC 65 -10.1923 54.8022 4 11 265
1950352S09063 1951 113 SI MM NOT_NAMED 1950-12-20 15:00:00 TS -10.4203 54.2789 main 560 499 P____P___PP___ SH061951 -10.2424 54.2649 -1 -10.9569 54.3263 99 -10.2424 54.2649 TC 65 -10.2395 54.2594 4 11 265
1950352S09063 1951 113 SI MM NOT_NAMED 1950-12-20 18:00:00 TS -10.4780 53.7091 main 499 440 O____P___OO___ jtwc_sh SH061951 -10.3000 53.7000 -1 -11.0121 53.7366 99 -10.3000 53.7000 TC 65 -10.3000 53.7000 4 12 263
1950352S09063 1951 113 SI MM NOT_NAMED 1950-12-20 21:00:00 TS -10.5600 53.1135 main 440 382 P____P___PP___ SH061951 -10.3925 53.1000 -1 -11.0653 53.1386 99 -10.3925 53.1000 TC 50 -10.3898 53.1152 4 12 262
1950352S09063 1951 113 SI MM NOT_NAMED 1950-12-21 00:00:00 TS -10.6523 52.5151 main 377 329 O____P___OP___ jtwc_sh SH061951 -10.5000 52.5000 -1 -11.1164 52.5403 99 -10.5000 52.5000 TC 35 -10.4927 52.5202 4 12 261
1950352S09063 1951 113 SI MM NOT_NAMED 1950-12-21 03:00:00 TS -10.7411 51.9324 main 320 268 P____P___PP___ SH061951 -10.6000 51.9200 -1 -11.1654 51.9494 99 -10.6000 51.9200 TC 35 -10.5992 51.9401 4 11 261
1950352S09063 1951 113 SI MM NOT_NAMED 1950-12-21 06:00:00 TS -10.8281 51.3935 main 268 227 O____P___OO___ jtwc_sh SH061951 -10.7000 51.4000 -1 -11.2122 51.3738 99 -10.7000 51.4000 TC 35 -10.7000 51.4000 2 10 260
1950352S09063 1951 113 SI MM NOT_NAMED 1950-12-21 09:00:00 TS -10.9123 50.9308 main 218 179 P____P___PP___ SH061951 -10.8073 50.9850 -1 -11.2571 50.8214 99 -10.8073 50.9850 TC 35 -10.7776 50.9317 2 9 260
1950352S09063 1951 113 SI MM NOT_NAMED 1950-12-21 12:00:00 TS -10.9873 50.5012 reunion main 179 150 O____O___OP___ jtwc_sh SH061951 -10.9000 50.6000 -1 -11.3000 50.3000 99 9.90000 -10.9000 50.6000 TC 35 -10.8493 50.5048 2 9 262
1950352S09063 1951 113 SI MM NOT_NAMED 1950-12-21 15:00:00 TS -11.0392 50.0574 main 150 116 P____P___PP___ SH061951 -10.9500 50.1499 -1 -11.3352 49.8291 99 -10.9500 50.1499 TC 35 -10.9214 50.1005 2 9 263
1950352S09063 1951 113 SI MM NOT_NAMED 1950-12-21 18:00:00 TS -11.0920 49.6218 main 116 100 O____P___OO___ jtwc_sh SH061951 -11.0000 49.7000 -1 -11.3680 49.3870 99 -11.0000 49.7000 TC 35 -11.0000 49.7000 2 8 261
1950352S09063 1951 113 SI MM NOT_NAMED 1950-12-21 21:00:00 TS -11.1724 49.2101 main 100 99 P____P___PP___ SH061951 -11.0924 49.3000 -1 -11.3999 48.9695 99 -11.0924 49.3000 TC 35 -11.1049 49.2710 2 8 258
1950352S09063 1951 113 SI MM NOT_NAMED 1950-12-22 00:00:00 TS -11.2618 48.8037 main 99 99 O____P___OP___ jtwc_sh SH061951 -11.2000 48.9000 -1 -11.4325 48.5723 99 -11.2000 48.9000 TC 35 -11.2148 48.8427 2 8 258
1950352S09063 1951 113 SI MM NOT_NAMED 1950-12-22 03:00:00 TS -11.3499 48.3772 main 125 117 P____P___PP___ SH061951 -11.3075 48.4500 -1 -11.4673 48.1910 99 -11.3075 48.4500 TC 35 -11.3174 48.4179 2 8 259
1950352S09063 1951 113 SI MM NOT_NAMED 1950-12-22 06:00:00 TS -11.4265 47.9553 main 148 148 O____P___OO___ jtwc_sh SH061951 -11.4000 48.0000 -1 -11.5059 47.8214 99 -11.4000 48.0000 TC 35 -11.4000 48.0000 2 8 261
1950352S09063 1951 113 SI MM NOT_NAMED 1950-12-22 09:00:00 TS -11.4804 47.5602 main 172 172 P____P___PP___ SH061951 -11.4649 47.5925 -1 -11.5496 47.4591 99 -11.4649 47.5925 TC 35 -11.4422 47.5967 2 8 263
1950352S09063 1951 113 SI MM NOT_NAMED 1950-12-22 12:00:00 TS -11.5162 47.1749 reunion main 207 207 O____O___OP___ jtwc_sh SH061951 -11.5000 47.2000 -1 -11.6000 47.1000 99 9.90000 -11.5000 47.2000 TC 35 -11.4647 47.1997 2 8 266
1950352S09063 1951 113 SI MM NOT_NAMED 1950-12-22 15:00:00 TS -11.5351 46.7806 main 244 244 P____P___PP___ SH061951 -11.4999 46.8074 -1 -11.6609 46.7046 99 -11.4999 46.8074 TC 35 -11.4797 46.8029 2 8 267
1950352S09063 1951 113 SI MM NOT_NAMED 1950-12-22 18:00:00 TS -11.5571 46.3783 main 279 279 O____P___OO___ jtwc_sh SH061951 -11.5000 46.4000 -1 -11.7282 46.3132 99 -11.5000 46.4000 TC 35 -11.5000 46.4000 2 8 265
1950352S09063 1951 113 SI MM NOT_NAMED 1950-12-22 21:00:00 TS -11.6072 45.9425 main 319 319 P____P___PP___ SH061951 -11.5425 45.9500 -1 -11.8008 45.9284 99 -11.5425 45.9500 TC 35 -11.5430 45.9417 2 9 263
1950352S09063 1951 113 SI MM NOT_NAMED 1950-12-23 00:00:00 TS -11.6676 45.5089 main 343 343 O____P___OP___ jtwc_sh SH061951 -11.6000 45.5000 -1 -11.8774 45.5530 99 -11.6000 45.5000 TC 35 -11.5928 45.4826 2 8 262
1950352S09063 1951 113 SI MM NOT_NAMED 1950-12-23 03:00:00 TS -11.7258 45.0930 main 377 377 P____P___PP___ SH061951 -11.6500 45.0625 -1 -11.9568 45.1897 99 -11.6500 45.0625 TC 35 -11.6462 45.0573 2 8 261
1950352S09063 1951 113 SI MM NOT_NAMED 1950-12-23 06:00:00 TS -11.7845 44.7353 main 407 407 O____P___OO___ jtwc_sh SH061951 -11.7000 44.7000 -1 -12.0378 44.8412 99 -11.7000 44.7000 TC 35 -11.7000 44.7000 2 6 259
1950352S09063 1951 113 SI MM NOT_NAMED 1950-12-23 09:00:00 TS -11.8432 44.4731 main 425 402 P____P___PP___ SH061951 -11.7499 44.4625 -1 -12.1193 44.5104 99 -11.7499 44.4625 TC 35 -11.7537 44.4571 2 5 256
1950352S09063 1951 113 SI MM NOT_NAMED 1950-12-23 12:00:00 TS -11.9018 44.2706 reunion main 402 380 O____O___OP___ jtwc_sh SH061951 -11.8000 44.3000 -1 -12.2000 44.2000 99 9.90000 -11.8000 44.3000 TC 35 -11.8070 44.2824 2 4 253
1950352S09063 1951 113 SI MM NOT_NAMED 1950-12-23 15:00:00 TS -11.9593 44.0851 main 380 359 P____P___PP___ SH061951 -11.8500 44.1500 -1 -12.2803 43.8988 99 -11.8500 44.1500 TC 35 -11.8569 44.1415 2 4 252
1950352S09063 1951 113 SI MM NOT_NAMED 1950-12-23 18:00:00 TS -12.0154 43.9042 main 359 337 O____P___OO___ jtwc_sh SH061951 -11.9000 44.0000 -1 -12.3615 43.6166 99 -11.9000 44.0000 TC 35 -11.9000 44.0000 2 4 254
1950352S09063 1951 113 SI MM NOT_NAMED 1950-12-23 21:00:00 TS -12.0724 43.6928 main 337 315 P____P___PP___ SH061951 -11.9575 43.8075 -1 -12.4424 43.3530 99 -11.9575 43.8075 TC 35 -11.9322 43.8031 2 4 256
1950352S09063 1951 113 SI MM NOT_NAMED 1950-12-24 00:00:00 TS -12.1198 43.4769 main 315 294 O____P___OP___ jtwc_sh SH061951 -12.0000 43.6000 -1 -12.5218 43.1076 99 -12.0000 43.6000 TC 35 -11.9575 43.6000 2 4 260
1950352S09063 1951 113 SI MM NOT_NAMED 1950-12-24 03:00:00 TS -12.1481 43.2655 main 294 272 P____P___PP___ SH061951 -12.0075 43.3925 -1 -12.5984 42.8800 99 -12.0075 43.3925 TC 35 -11.9791 43.3969 2 4 263
1950352S09063 1951 113 SI MM NOT_NAMED 1950-12-24 06:00:00 TS -12.1678 43.0675 main 272 251 O____P___OO___ jtwc_sh SH061951 -12.0000 43.2000 -1 -12.6712 42.6698 99 -12.0000 43.2000 TC 35 -12.0000 43.2000 2 4 264
1950352S09063 1951 113 SI MM NOT_NAMED 1950-12-24 09:00:00 TS -12.1872 42.8996 main 251 229 P____P___PP___ SH061951 -11.9925 43.0500 -1 -12.7388 42.4766 99 -11.9925 43.0500 TC 35 -12.0249 43.0219 2 3 262
1950352S09063 1951 113 SI MM NOT_NAMED 1950-12-24 12:00:00 TS -12.2125 42.7375 reunion main 229 218 O____O___OP___ jtwc_sh SH061951 -12.0000 42.9000 -1 -12.8000 42.3000 99 9.90000 -12.0000 42.9000 TC 35 -12.0499 42.8500 2 3 258
1950352S09063 1951 113 SI MM NOT_NAMED 1950-12-24 15:00:00 TS -12.2560 42.5565 main 219 198 P____P___PP___ SH061951 -12.0500 42.7075 -1 -12.8492 42.1330 99 -12.0500 42.7075 TC 35 -12.0749 42.6781 2 4 257
1950352S09063 1951 113 SI MM NOT_NAMED 1950-12-24 18:00:00 TS -12.2980 42.3713 main 198 177 O____P___OO___ jtwc_sh SH061951 -12.1000 42.5000 -1 -12.8920 41.9850 99 -12.1000 42.5000 TC 35 -12.1000 42.5000 2 4 261
1950352S09063 1951 113 SI MM NOT_NAMED 1950-12-24 21:00:00 TS -12.3137 42.1909 main 177 153 P____P___PP___ SH061951 -12.1000 42.3000 -1 -12.9299 41.8525 99 -12.1000 42.3000 TC 30 -12.1251 42.3110 2 4 258
1950352S09063 1951 113 SI MM NOT_NAMED 1950-12-25 00:00:00 TS -12.3775 41.9897 main 153 130 O____P___OP___ jtwc_sh SH061951 -12.1000 42.1000 -1 -12.9644 41.7321 99 -12.1000 42.1000 TC 25 -12.1502 42.1125 2 4 246
1950352S09063 1951 113 SI MM NOT_NAMED 1950-12-25 03:00:00 TS -12.4889 41.7896 main 130 108 P____P___PP___ SH061951 -12.1375 41.9000 -1 -12.9971 41.6202 99 -12.1375 41.9000 TC 25 -12.1751 41.9078 2 5 233
1950352S09063 1951 113 SI MM NOT_NAMED 1950-12-25 06:00:00 TS -12.6741 41.5933 main 108 89 O____P___OO___ jtwc_sh SH061951 -12.2000 41.7000 -1 -13.0296 41.5132 99 -12.2000 41.7000 TC 25 -12.2000 41.7000 1 7 213
1950352S09063 1951 113 SI MM NOT_NAMED 1950-12-25 09:00:00 NR -13.0634 41.4076 main 92 82 _____P________ SH061951 -1 -13.0634 41.4076 99 TC 1 5 214
1950352S09063 1951 113 SI MM NOT_NAMED 1950-12-25 12:00:00 NR -13.1000 41.3000 reunion main 82 73 _____O________ -1 -13.1000 41.3000 99 9.90000 1 2 256
1950352S09063 1951 113 SI MM NOT_NAMED 1950-12-25 15:00:00 NR -13.1224 41.1710 main 73 54 _____P________ -1 -13.1224 41.1710 99 1 3 260
1950352S09063 1951 113 SI MM NOT_NAMED 1950-12-25 18:00:00 NR -13.1441 41.0415 main 54 39 _____P________ -1 -13.1441 41.0415 99 3 259
1950352S09063 1951 113 SI MM NOT_NAMED 1950-12-25 21:00:00 NR -13.1693 40.9124 main 39 31 _____P________ -1 -13.1693 40.9124 99 3 257
1950352S09063 1951 113 SI MM NOT_NAMED 1950-12-26 00:00:00 NR -13.2025 40.7845 main 31 21 _____P________ -1 -13.2025 40.7845 99 3 252
1950352S09063 1951 113 SI MM NOT_NAMED 1950-12-26 03:00:00 NR -13.2479 40.6585 main 21 0 _____P________ -1 -13.2479 40.6585 99 3 246
1950352S09063 1951 113 SI MM NOT_NAMED 1950-12-26 06:00:00 NR -13.3097 40.5352 main 0 0 _____P________ -1 -13.3097 40.5352 99 3 239
1950352S09063 1951 113 SI MM NOT_NAMED 1950-12-26 09:00:00 NR -13.3923 40.4155 main 0 0 _____P________ -1 -13.3923 40.4155 99 3 230
1950352S09063 1951 113 SI MM NOT_NAMED 1950-12-26 12:00:00 NR -13.5000 40.3000 reunion main 0 0 _____O________ -1 -13.5000 40.3000 99 9.90000 4 220
1950352S09063 1951 113 SI MM NOT_NAMED 1950-12-26 15:00:00 NR -13.6614 40.1776 main 0 0 _____P________ -1 -13.6614 40.1776 99 4 214
1950352S09063 1951 113 SI MM NOT_NAMED 1950-12-26 18:00:00 NR -13.8503 40.0578 main 0 0 _____P________ -1 -13.8503 40.0578 99 5 210
1950352S09063 1951 113 SI MM NOT_NAMED 1950-12-26 21:00:00 NR -14.0584 39.9424 main 0 0 _____P________ -1 -14.0584 39.9424 99 5 207
1950352S09063 1951 113 SI MM NOT_NAMED 1950-12-27 00:00:00 NR -14.2775 39.8333 main 0 0 _____P________ -1 -14.2775 39.8333 99 5 204
1950352S09063 1951 113 SI MM NOT_NAMED 1950-12-27 03:00:00 NR -14.4995 39.7326 main 0 0 _____P________ -1 -14.4995 39.7326 99 5 203
1950352S09063 1951 113 SI MM NOT_NAMED 1950-12-27 06:00:00 NR -14.7160 39.6421 main 0 0 _____P________ -1 -14.7160 39.6421 99 5 201
1950352S09063 1951 113 SI MM NOT_NAMED 1950-12-27 09:00:00 NR -14.9189 39.5639 main 0 0 _____P________ -1 -14.9189 39.5639 99 4 199
1950352S09063 1951 113 SI MM NOT_NAMED 1950-12-27 12:00:00 NR -15.1000 39.5000 reunion main 0 0 _____O________ -1 -15.1000 39.5000 99 9.90000 4 198
1950352S09063 1951 113 SI MM NOT_NAMED 1950-12-27 15:00:00 NR -15.2531 39.4517 main 0 0 _____P________ -1 -15.2531 39.4517 99 3 196
1950352S09063 1951 113 SI MM NOT_NAMED 1950-12-27 18:00:00 NR -15.3799 39.4177 main 0 0 _____P________ -1 -15.3799 39.4177 99 2 193
1950352S09063 1951 113 SI MM NOT_NAMED 1950-12-27 21:00:00 NR -15.4843 39.3959 main 0 0 _____P________ -1 -15.4843 39.3959 99 2 191
1950352S09063 1951 113 SI MM NOT_NAMED 1950-12-28 00:00:00 NR -15.5699 39.3844 main 0 0 _____P________ -1 -15.5699 39.3844 99 2 189
1950352S09063 1951 113 SI MM NOT_NAMED 1950-12-28 03:00:00 NR -15.6405 39.3811 main 0 0 _____P________ -1 -15.6405 39.3811 99 1 188
1950352S09063 1951 113 SI MM NOT_NAMED 1950-12-28 06:00:00 NR -15.6999 39.3840 main 0 0 _____P________ -1 -15.6999 39.3840 99 1 174
1950352S09063 1951 113 SI MM NOT_NAMED 1950-12-28 09:00:00 NR -15.7518 39.3910 main 0 0 _____P________ -1 -15.7518 39.3910 99 1 0
1950352S09063 1951 113 SI MM NOT_NAMED 1950-12-28 12:00:00 NR -15.8000 39.4000 reunion main 0 _____O________ -1 -15.8000 39.4000 99 9.90000 1 0

About IBTrACS Database

This database is a web-friendly format of International Best Track Archive for Climate Stewardship (IBTrACS), a global best track data archive curated by NOAA dating back to 1842.

Updated: 2021-12-01